Terminal Aerodrome Forecast
Issued by NWS

Home | Current Version | Previous Version | Text Only | Print | Product List | Glossary On
Versions: 1 2 3 4 5 6 7 8 9 10 11 12 13 14 15 16 17 18 19 20 21 22
000
FTUS45 KABQ 302335
TAFLVS
TAF
KLVS 302335Z 0100/0124 28010G18KT P6SM FEW060 FEW250
     FM010300 25011KT P6SM FEW250
     FM012100 25014G24KT P6SM FEW080=

USA.gov is the U.S. government's official web portal to all federal, state and local government web resources and services.